createdAt,value
2018-08-19T00:01:04.220Z,17.30
2018-08-19T00:05:11.367Z,17.20
2018-08-19T00:09:15.066Z,17.10
2018-08-19T00:13:17.767Z,17.20
2018-08-19T00:17:20.486Z,17.10
2018-08-19T00:21:23.175Z,16.90
2018-08-19T00:25:35.048Z,16.70
2018-08-19T00:29:37.639Z,16.60
2018-08-19T00:33:40.241Z,16.70
2018-08-19T00:37:42.913Z,16.60
2018-08-19T00:41:45.510Z,16.60
2018-08-19T00:45:48.155Z,16.50
2018-08-19T00:49:55.387Z,16.50
2018-08-19T00:53:57.977Z,16.50
2018-08-19T00:58:00.590Z,16.40
2018-08-19T01:02:03.358Z,16.80
2018-08-19T01:06:05.917Z,17.20
2018-08-19T01:10:08.748Z,17.10
2018-08-19T01:14:13.657Z,16.70
2018-08-19T01:18:16.305Z,16.40
2018-08-19T01:22:18.945Z,16.30
2018-08-19T01:26:21.558Z,16.40
2018-08-19T01:30:24.553Z,16.30
2018-08-19T01:34:27.122Z,16.60
2018-08-19T01:38:29.691Z,16.50
2018-08-19T01:42:34.058Z,16.30
2018-08-19T01:46:51.387Z,16.10
2018-08-19T01:50:53.922Z,16.00
2018-08-19T01:54:56.510Z,15.90
2018-08-19T01:58:59.116Z,15.80
2018-08-19T02:03:03.883Z,16.00
2018-08-19T02:07:06.497Z,16.00
2018-08-19T02:11:24.106Z,16.10
2018-08-19T02:15:28.422Z,16.00
2018-08-19T02:19:30.994Z,16.00
2018-08-19T02:23:33.639Z,15.90
2018-08-19T02:27:36.284Z,15.90
2018-08-19T02:31:38.911Z,16.10
2018-08-19T02:35:42.753Z,16.10
2018-08-19T02:39:47.426Z,16.00
2018-08-19T02:43:57.416Z,16.40
2018-08-19T02:47:59.968Z,16.30
2018-08-19T02:52:03.282Z,16.10
2018-08-19T02:56:05.965Z,16.00
2018-08-19T03:00:10.301Z,15.70
2018-08-19T03:04:12.885Z,15.80
2018-08-19T03:08:15.478Z,15.80
2018-08-19T03:12:18.174Z,16.00
2018-08-19T03:16:21.749Z,16.50
2018-08-19T03:20:24.305Z,16.20
2018-08-19T03:24:26.889Z,15.80
2018-08-19T03:28:29.565Z,15.50
2018-08-19T03:32:32.234Z,15.30
2018-08-19T03:36:35.034Z,15.40
2018-08-19T03:40:37.662Z,15.20
2018-08-19T03:44:40.315Z,15.00
2018-08-19T03:48:43.015Z,14.90
2018-08-19T03:52:45.684Z,15.40
2018-08-19T03:56:48.238Z,15.40
2018-08-19T04:00:50.834Z,15.30
2018-08-19T04:04:53.418Z,15.20
2018-08-19T04:08:56.069Z,15.30
2018-08-19T04:12:58.649Z,15.80
2018-08-19T04:17:01.766Z,15.90
2018-08-19T04:21:06.717Z,15.70
2018-08-19T04:25:09.441Z,15.60
2018-08-19T04:29:17.721Z,15.40
2018-08-19T04:33:24.868Z,15.30
2018-08-19T04:37:27.938Z,15.20
2018-08-19T04:41:30.548Z,15.00
2018-08-19T04:45:33.159Z,15.00
2018-08-19T04:49:35.755Z,15.10
2018-08-19T04:53:38.357Z,15.10
2018-08-19T04:57:40.917Z,15.20
2018-08-19T05:01:45.076Z,15.40
2018-08-19T05:05:47.736Z,15.50
2018-08-19T05:09:50.336Z,15.60
2018-08-19T05:13:52.966Z,15.60
2018-08-19T05:22:10.487Z,15.90
2018-08-19T05:26:13.383Z,16.20
2018-08-19T05:30:16.003Z,16.40
2018-08-19T05:34:24.193Z,16.40
2018-08-19T05:38:29.477Z,16.60
2018-08-19T05:42:32.117Z,16.90
2018-08-19T05:46:34.707Z,17.00
2018-08-19T05:50:37.316Z,17.30
2018-08-19T05:54:56.148Z,17.70
2018-08-19T05:58:58.859Z,17.90
2018-08-19T06:03:01.974Z,18.20
2018-08-19T06:07:06.171Z,18.00
2018-08-19T06:11:08.755Z,18.30
2018-08-19T06:15:11.447Z,18.40
2018-08-19T06:19:14.227Z,18.60
2018-08-19T06:23:17.014Z,19.00
2018-08-19T06:27:19.813Z,19.20
2018-08-19T06:31:22.565Z,19.10
2018-08-19T06:35:25.197Z,19.30
2018-08-19T06:39:27.850Z,19.60
2018-08-19T06:43:30.469Z,19.50
2018-08-19T06:47:34.251Z,19.70
2018-08-19T06:51:36.871Z,19.80
2018-08-19T06:55:39.540Z,20.00
2018-08-19T06:59:42.222Z,20.20
2018-08-19T07:03:50.410Z,20.70
2018-08-19T07:07:53.055Z,20.60
2018-08-19T07:12:01.389Z,20.90
2018-08-19T07:16:04.203Z,21.50
2018-08-19T07:20:07.139Z,21.70
2018-08-19T07:24:09.783Z,21.80
2018-08-19T07:28:13.951Z,22.40
2018-08-19T07:32:16.568Z,22.00
2018-08-19T07:36:19.272Z,22.00
2018-08-19T07:40:21.914Z,22.10
2018-08-19T07:44:24.594Z,22.70
2018-08-19T07:48:27.139Z,23.20
2018-08-19T07:52:29.811Z,23.50
2018-08-19T07:56:32.536Z,23.70
2018-08-19T08:00:38.434Z,23.40
2018-08-19T08:04:42.186Z,23.90
2018-08-19T08:08:44.849Z,24.20
2018-08-19T08:12:54.279Z,23.40
2018-08-19T08:16:57.007Z,23.40
2018-08-19T08:21:07.069Z,23.10
2018-08-19T08:25:10.465Z,23.60
2018-08-19T08:29:13.098Z,24.30
2018-08-19T08:33:15.780Z,24.10
2018-08-19T08:37:18.450Z,24.20
2018-08-19T08:41:21.141Z,23.80
2018-08-19T08:45:28.270Z,23.50
2018-08-19T08:49:37.229Z,23.30
2018-08-19T08:53:44.682Z,22.80
2018-08-19T08:57:48.214Z,22.90
2018-08-19T09:01:51.615Z,23.10
2018-08-19T09:05:54.674Z,23.20
2018-08-19T09:09:57.406Z,23.70
2018-08-19T09:14:00.342Z,24.10
2018-08-19T09:18:03.794Z,23.90
2018-08-19T09:22:06.804Z,23.30
2018-08-19T09:26:09.759Z,23.80
2018-08-19T09:30:19.838Z,23.80
2018-08-19T09:34:22.834Z,24.00
2018-08-19T09:38:25.512Z,23.80
2018-08-19T09:42:28.200Z,23.60
2018-08-19T09:46:30.867Z,23.80
2018-08-19T09:50:34.545Z,23.50
2018-08-19T09:54:38.047Z,23.30
2018-08-19T09:58:45.316Z,23.10
2018-08-19T10:02:49.498Z,23.50
2018-08-19T10:07:01.967Z,23.80
2018-08-19T10:11:05.669Z,24.20
2018-08-19T10:15:08.373Z,23.90
2018-08-19T10:19:11.914Z,24.40
2018-08-19T10:23:14.522Z,25.20
2018-08-19T10:27:17.176Z,25.90
2018-08-19T10:31:19.922Z,25.20
2018-08-19T10:35:23.480Z,25.00
2018-08-19T10:39:26.248Z,25.50
2018-08-19T10:43:29.029Z,25.50
2018-08-19T10:47:31.780Z,26.00
2018-08-19T10:51:37.824Z,25.80
2018-08-19T10:55:40.778Z,26.30
2018-08-19T10:59:43.478Z,26.20
2018-08-19T11:03:46.145Z,26.40
2018-08-19T11:07:48.817Z,26.80
2018-08-19T11:11:51.532Z,26.30
2018-08-19T11:15:56.190Z,26.30
2018-08-19T11:19:58.841Z,26.30
2018-08-19T11:24:01.466Z,26.80
2018-08-19T11:28:16.020Z,27.60
2018-08-19T11:32:31.927Z,27.70
2018-08-19T11:36:40.206Z,26.60
2018-08-19T11:40:42.947Z,26.20
2018-08-19T11:44:45.578Z,25.90
2018-08-19T11:48:55.359Z,26.10
2018-08-19T11:52:58.928Z,26.20
2018-08-19T11:57:11.297Z,26.70
2018-08-19T12:01:15.232Z,26.70
2018-08-19T12:05:17.849Z,26.10
2018-08-19T12:09:20.519Z,25.90
2018-08-19T12:13:23.184Z,26.60
2018-08-19T12:17:25.832Z,26.80
2018-08-19T12:21:29.859Z,26.10
2018-08-19T12:25:32.681Z,26.00
2018-08-19T12:29:36.573Z,26.70
2018-08-19T12:33:39.270Z,26.50
2018-08-19T12:37:41.952Z,26.60
2018-08-19T12:41:49.110Z,26.60
2018-08-19T12:45:51.707Z,26.60
2018-08-19T12:50:03.313Z,27.10
2018-08-19T12:54:06.027Z,27.00
2018-08-19T12:58:08.726Z,26.60
2018-08-19T13:02:11.399Z,26.60
2018-08-19T13:06:14.016Z,26.60
2018-08-19T13:10:17.081Z,26.20
2018-08-19T13:14:19.746Z,26.30
2018-08-19T13:18:28.574Z,26.70
2018-08-19T13:22:31.199Z,27.00
2018-08-19T13:26:33.788Z,26.80
2018-08-19T13:30:36.468Z,26.70
2018-08-19T13:34:39.150Z,26.80
2018-08-19T13:38:41.896Z,27.10
2018-08-19T13:42:44.631Z,27.10
2018-08-19T13:46:47.476Z,26.90
2018-08-19T13:50:50.804Z,26.90
2018-08-19T13:54:59.407Z,26.60
2018-08-19T13:59:02.071Z,26.40
2018-08-19T14:03:04.955Z,26.80
2018-08-19T14:07:07.530Z,26.80
2018-08-19T14:11:11.459Z,26.90
2018-08-19T14:15:14.224Z,26.80
2018-08-19T14:19:16.872Z,27.10
2018-08-19T14:23:19.598Z,27.00
2018-08-19T14:27:22.320Z,27.00
2018-08-19T14:31:25.129Z,26.70
2018-08-19T14:35:27.813Z,27.00
2018-08-19T14:39:30.469Z,27.00
2018-08-19T14:43:34.315Z,26.70
2018-08-19T14:47:37.322Z,26.50
2018-08-19T14:51:58.693Z,26.80
2018-08-19T14:56:14.755Z,27.10
2018-08-19T15:00:17.925Z,26.80
2018-08-19T15:04:20.643Z,26.60
2018-08-19T15:08:23.261Z,26.40
2018-08-19T15:12:26.669Z,26.40
2018-08-19T15:16:29.608Z,26.40
2018-08-19T15:20:33.323Z,26.40
2018-08-19T15:24:35.999Z,26.30
2018-08-19T15:28:38.677Z,26.40
2018-08-19T15:32:41.804Z,26.10
2018-08-19T15:36:44.302Z,26.20
2018-08-19T15:40:48.248Z,26.10
2018-08-19T15:44:50.865Z,26.10
2018-08-19T15:48:54.544Z,26.10
2018-08-19T15:52:58.038Z,25.90
2018-08-19T15:57:04.930Z,25.70
2018-08-19T16:05:45.379Z,25.70
2018-08-19T16:09:48.062Z,25.50
2018-08-19T16:13:50.637Z,25.70
2018-08-19T16:17:54.695Z,25.60
2018-08-19T16:21:59.596Z,25.60
2018-08-19T16:26:02.352Z,25.50
2018-08-19T16:30:05.142Z,25.50
2018-08-19T16:34:07.776Z,25.50
2018-08-19T16:38:10.495Z,25.40
2018-08-19T16:42:13.156Z,25.40
2018-08-19T16:46:16.582Z,25.50
2018-08-19T16:50:19.374Z,25.50
2018-08-19T16:54:22.220Z,25.40
2018-08-19T16:58:24.951Z,25.10
2018-08-19T17:02:27.580Z,25.20
2018-08-19T17:06:30.316Z,24.90
2018-08-19T17:10:33.246Z,25.00
2018-08-19T17:14:36.175Z,25.00
2018-08-19T17:18:38.881Z,24.90
2018-08-19T17:22:41.738Z,24.80
2018-08-19T17:26:44.593Z,24.70
2018-08-19T17:30:47.930Z,24.60
2018-08-19T17:34:50.699Z,24.60
2018-08-19T17:38:53.383Z,24.50
2018-08-19T17:42:56.277Z,24.40
2018-08-19T17:46:58.923Z,24.40
2018-08-19T17:51:01.589Z,24.30
2018-08-19T17:55:04.239Z,24.20
2018-08-19T17:59:06.894Z,24.20
2018-08-19T18:03:09.547Z,24.10
2018-08-19T18:07:15.032Z,24.00
2018-08-19T18:11:18.069Z,23.90
2018-08-19T18:15:20.743Z,23.90
2018-08-19T18:19:23.594Z,23.90
2018-08-19T18:23:27.932Z,23.80
2018-08-19T18:27:30.559Z,23.70
2018-08-19T18:31:33.164Z,23.60
2018-08-19T18:35:36.966Z,23.60
2018-08-19T18:39:42.715Z,23.50
2018-08-19T18:43:45.892Z,23.50
2018-08-19T18:47:54.212Z,23.40
2018-08-19T18:52:03.525Z,23.40
2018-08-19T18:56:06.668Z,23.30
2018-08-19T19:00:11.001Z,23.20
2018-08-19T19:04:13.701Z,23.10
2018-08-19T19:08:17.504Z,23.10
2018-08-19T19:12:21.906Z,23.10
2018-08-19T19:16:29.974Z,23.00
2018-08-19T19:20:32.753Z,22.90
2018-08-19T19:24:38.098Z,22.90
2018-08-19T19:28:40.989Z,22.80
2018-08-19T19:32:43.759Z,22.80
2018-08-19T19:36:47.164Z,22.70
2018-08-19T19:40:50.498Z,22.60
2018-08-19T19:44:53.344Z,22.60
2018-08-19T19:48:56.365Z,22.60
2018-08-19T19:52:59.333Z,22.60
2018-08-19T19:57:02.179Z,22.70
2018-08-19T20:01:04.907Z,22.60
2018-08-19T20:05:14.529Z,22.50
2018-08-19T20:09:17.269Z,22.50
2018-08-19T20:13:20.093Z,22.60
2018-08-19T20:17:22.958Z,22.50
2018-08-19T20:21:27.689Z,22.50
2018-08-19T20:25:30.515Z,22.50
2018-08-19T20:29:33.481Z,22.50
2018-08-19T20:33:36.323Z,22.40
2018-08-19T20:37:39.326Z,22.30
2018-08-19T20:41:43.137Z,22.30
2018-08-19T20:45:46.085Z,22.30
2018-08-19T20:49:49.275Z,22.30
2018-08-19T20:53:52.026Z,22.40
2018-08-19T20:57:54.719Z,22.30
2018-08-19T21:01:57.317Z,22.20
2018-08-19T21:06:00.056Z,22.10
2018-08-19T21:10:02.795Z,22.10
2018-08-19T21:14:05.479Z,22.10
2018-08-19T21:18:08.249Z,22.20
2018-08-19T21:22:10.856Z,22.10
2018-08-19T21:26:13.511Z,22.00
2018-08-19T21:30:16.161Z,22.00
2018-08-19T21:34:19.029Z,22.00
2018-08-19T21:38:21.656Z,22.00
2018-08-19T21:42:25.150Z,21.90
2018-08-19T21:46:28.429Z,21.90
2018-08-19T21:50:31.122Z,21.90
2018-08-19T21:54:33.782Z,21.90
2018-08-19T21:58:36.445Z,21.80
2018-08-19T22:02:44.868Z,21.80
2018-08-19T22:06:47.659Z,21.80
2018-08-19T22:10:50.318Z,21.80
2018-08-19T22:14:52.983Z,21.80
2018-08-19T22:18:55.628Z,21.60
2018-08-19T22:22:58.304Z,21.60
2018-08-19T22:27:08.471Z,21.60
2018-08-19T22:31:27.615Z,21.50
2018-08-19T22:35:31.417Z,21.50
2018-08-19T22:39:34.218Z,21.50
2018-08-19T22:43:36.809Z,21.50
2018-08-19T22:47:39.437Z,21.60
2018-08-19T22:51:42.208Z,21.60
2018-08-19T22:55:44.841Z,21.50
2018-08-19T22:59:47.534Z,21.50
2018-08-19T23:04:00.562Z,21.60
2018-08-19T23:08:03.302Z,21.50
2018-08-19T23:12:06.026Z,21.60
2018-08-19T23:16:09.928Z,21.60
2018-08-19T23:20:12.556Z,21.50
2018-08-19T23:24:15.240Z,21.50
2018-08-19T23:28:18.159Z,21.40
2018-08-19T23:32:20.831Z,21.40
2018-08-19T23:36:23.439Z,21.50
2018-08-19T23:40:26.056Z,21.30
2018-08-19T23:44:28.659Z,21.40
2018-08-19T23:48:31.403Z,21.40
2018-08-19T23:52:34.061Z,21.40
2018-08-19T23:56:36.648Z,21.40
